createdAt,value
2022-11-29T00:00:03.176Z,12.38
2022-11-29T00:02:41.326Z,11.30
2022-11-29T00:05:10.492Z,11.38
2022-11-29T00:07:39.069Z,11.50
2022-11-29T00:10:10.862Z,10.88
2022-11-29T00:12:39.632Z,11.57
2022-11-29T00:15:08.792Z,10.68
2022-11-29T00:17:37.937Z,9.93
2022-11-29T00:20:08.007Z,13.75
2022-11-29T00:22:36.534Z,11.77
2022-11-29T00:25:05.838Z,13.60
2022-11-29T00:27:35.947Z,11.90
2022-11-29T00:30:04.957Z,11.00
2022-11-29T00:32:33.599Z,12.15
2022-11-29T00:35:08.179Z,10.18
2022-11-29T00:37:38.227Z,10.52
2022-11-29T00:40:08.860Z,11.65
2022-11-29T00:42:39.029Z,10.70
2022-11-29T00:45:08.559Z,8.75
2022-11-29T00:47:37.325Z,10.15
2022-11-29T00:50:07.664Z,10.27
2022-11-29T00:52:36.295Z,10.95
2022-11-29T00:55:04.952Z,8.07
2022-11-29T00:57:33.815Z,9.13
2022-11-29T01:00:04.202Z,9.48
2022-11-29T01:02:32.863Z,9.88
2022-11-29T01:05:01.399Z,10.95
2022-11-29T01:07:30.297Z,9.25
2022-11-29T01:09:59.049Z,8.88
2022-11-29T01:12:27.711Z,9.52
2022-11-29T01:14:56.242Z,10.68
2022-11-29T01:17:26.292Z,9.88
2022-11-29T01:19:54.971Z,9.93
2022-11-29T01:22:23.546Z,10.20
2022-11-29T01:24:52.012Z,9.25
2022-11-29T01:27:20.597Z,9.55
2022-11-29T01:29:49.102Z,10.25
2022-11-29T01:32:17.674Z,8.38
2022-11-29T01:34:47.660Z,7.93
2022-11-29T01:37:16.207Z,8.98
2022-11-29T01:39:45.008Z,8.77
2022-11-29T01:42:13.740Z,7.22
2022-11-29T01:45:29.773Z,7.72
2022-11-29T01:47:59.521Z,7.15
2022-11-29T01:50:29.782Z,8.98
2022-11-29T01:52:59.151Z,10.30
2022-11-29T01:55:28.158Z,7.90
2022-11-29T01:57:56.996Z,7.80
2022-11-29T02:00:25.731Z,8.50
2022-11-29T02:02:59.841Z,9.75
2022-11-29T02:05:30.078Z,8.50
2022-11-29T02:08:00.510Z,7.10
2022-11-29T02:10:46.420Z,7.32
2022-11-29T02:13:25.288Z,7.38
2022-11-29T02:16:01.209Z,7.60
2022-11-29T02:18:44.674Z,7.18
2022-11-29T02:21:28.886Z,7.53
2022-11-29T02:24:18.503Z,7.88
2022-11-29T02:27:19.231Z,7.50
2022-11-29T02:30:24.487Z,7.13
2022-11-29T02:33:24.990Z,7.65
2022-11-29T02:36:20.459Z,7.20
2022-11-29T02:39:14.252Z,8.00
2022-11-29T02:42:04.846Z,7.22
2022-11-29T02:45:04.523Z,8.20
2022-11-29T02:47:46.083Z,8.52
2022-11-29T02:50:22.125Z,7.47
2022-11-29T02:53:02.572Z,6.70
2022-11-29T02:55:38.876Z,7.97
2022-11-29T02:58:18.463Z,7.97
2022-11-29T03:00:57.059Z,8.25
2022-11-29T03:03:33.271Z,7.85
2022-11-29T03:06:12.824Z,7.93
2022-11-29T03:08:51.761Z,8.32
2022-11-29T03:11:30.524Z,7.07
2022-11-29T03:14:15.426Z,8.40
2022-11-29T03:16:53.000Z,6.60
2022-11-29T03:19:41.819Z,5.75
2022-11-29T03:22:26.096Z,8.35
2022-11-29T03:25:02.249Z,6.20
2022-11-29T03:27:40.610Z,6.43
2022-11-29T03:30:11.987Z,7.10
2022-11-29T03:32:49.296Z,5.53
2022-11-29T03:35:23.467Z,8.18
2022-11-29T03:38:01.051Z,5.65
2022-11-29T03:40:35.361Z,6.82
2022-11-29T03:43:09.136Z,6.05
2022-11-29T03:45:45.060Z,6.85
2022-11-29T03:48:17.271Z,5.50
2022-11-29T03:50:51.713Z,6.78
2022-11-29T03:53:34.399Z,5.78
2022-11-29T03:56:04.749Z,7.22
2022-11-29T03:58:55.060Z,5.97
2022-11-29T04:02:07.024Z,5.13
2022-11-29T04:05:13.892Z,4.80
2022-11-29T04:08:02.746Z,5.68
2022-11-29T04:11:00.220Z,5.85
2022-11-29T04:13:59.266Z,5.57
2022-11-29T04:17:19.010Z,7.20
2022-11-29T04:20:33.830Z,5.68
2022-11-29T04:23:53.341Z,6.50
2022-11-29T04:26:56.046Z,6.35
2022-11-29T04:29:56.321Z,5.05
2022-11-29T04:33:00.840Z,5.13
2022-11-29T04:35:45.244Z,7.30
2022-11-29T04:38:46.224Z,5.13
2022-11-29T04:41:38.283Z,5.90
2022-11-29T04:44:43.276Z,5.80
2022-11-29T04:47:33.481Z,4.85
2022-11-29T04:50:21.716Z,5.47
2022-11-29T04:53:14.230Z,6.07
2022-11-29T04:55:50.039Z,5.55
2022-11-29T04:58:29.724Z,6.85
2022-11-29T05:01:05.659Z,6.88
2022-11-29T05:03:45.729Z,5.20
2022-11-29T05:06:29.132Z,5.30
2022-11-29T05:09:11.606Z,4.68
2022-11-29T05:11:58.104Z,4.88
2022-11-29T05:14:42.496Z,5.10
2022-11-29T05:17:33.308Z,4.18
2022-11-29T05:20:17.322Z,4.80
2022-11-29T05:22:54.284Z,4.95
2022-11-29T05:25:39.165Z,8.00
2022-11-29T05:28:14.746Z,5.13
2022-11-29T05:31:06.934Z,5.95
2022-11-29T05:34:12.306Z,5.05
2022-11-29T05:36:51.006Z,3.83
2022-11-29T05:39:38.746Z,4.00
2022-11-29T05:42:21.722Z,4.75
2022-11-29T05:44:58.415Z,4.78
2022-11-29T05:47:36.646Z,5.00
2022-11-29T05:50:16.642Z,4.38
2022-11-29T05:52:55.309Z,4.55
2022-11-29T05:55:36.801Z,5.15
2022-11-29T05:58:14.622Z,5.03
2022-11-29T06:00:52.683Z,4.72
2022-11-29T06:03:31.589Z,4.88
2022-11-29T06:06:08.444Z,4.68
2022-11-29T06:08:44.819Z,5.13
2022-11-29T06:11:19.756Z,6.18
2022-11-29T06:14:03.357Z,6.00
2022-11-29T06:16:43.999Z,5.00
2022-11-29T06:19:53.082Z,4.93
2022-11-29T06:23:10.684Z,4.03
2022-11-29T06:26:04.339Z,4.72
2022-11-29T06:28:48.797Z,5.50
2022-11-29T06:31:22.932Z,4.75
2022-11-29T06:34:00.340Z,5.03
2022-11-29T06:36:35.982Z,4.93
2022-11-29T06:39:07.024Z,4.22
2022-11-29T06:44:05.216Z,6.10
2022-11-29T06:46:48.638Z,5.10
2022-11-29T06:49:28.773Z,5.32
2022-11-29T06:52:13.244Z,5.35
2022-11-29T06:55:05.199Z,5.28
2022-11-29T06:57:47.706Z,4.57
2022-11-29T07:00:24.689Z,5.53
2022-11-29T07:03:12.546Z,5.82
2022-11-29T07:05:43.669Z,6.15
2022-11-29T07:08:19.007Z,5.07
2022-11-29T07:10:53.468Z,5.03
2022-11-29T07:13:27.127Z,5.75
2022-11-29T07:16:05.372Z,6.10
2022-11-29T07:18:46.208Z,5.20
2022-11-29T07:21:25.186Z,5.90
2022-11-29T07:24:03.861Z,7.20
2022-11-29T07:26:59.685Z,6.93
2022-11-29T07:29:39.319Z,6.07
2022-11-29T07:32:17.856Z,6.57
2022-11-29T07:34:59.728Z,5.60
2022-11-29T07:37:38.527Z,7.85
2022-11-29T07:40:19.010Z,6.45
2022-11-29T07:43:00.733Z,7.07
2022-11-29T07:45:35.140Z,6.13
2022-11-29T07:48:18.875Z,6.95
2022-11-29T07:50:53.529Z,6.47
2022-11-29T07:53:24.562Z,6.60
2022-11-29T07:55:55.708Z,6.85
2022-11-29T07:58:26.621Z,6.97
2022-11-29T08:01:01.205Z,5.75
2022-11-29T08:03:30.961Z,5.53
2022-11-29T08:06:00.000Z,5.68
2022-11-29T08:08:29.641Z,7.07
2022-11-29T08:11:00.341Z,7.45
2022-11-29T08:13:34.532Z,6.50
2022-11-29T08:16:06.410Z,5.93
2022-11-29T08:18:35.237Z,8.35
2022-11-29T08:21:07.754Z,6.88
2022-11-29T08:23:39.033Z,6.70
2022-11-29T08:26:08.032Z,9.20
2022-11-29T08:28:45.687Z,5.63
2022-11-29T08:31:14.872Z,5.45
2022-11-29T08:33:47.988Z,5.97
2022-11-29T08:36:18.606Z,6.20
2022-11-29T08:38:47.575Z,6.55
2022-11-29T08:41:18.546Z,6.07
2022-11-29T08:43:48.811Z,5.43
2022-11-29T08:46:18.998Z,4.95
2022-11-29T08:48:47.746Z,5.23
2022-11-29T08:51:16.902Z,4.35
2022-11-29T08:53:46.427Z,5.72
2022-11-29T08:59:08.821Z,5.35
2022-11-29T09:01:37.370Z,5.80
2022-11-29T09:04:07.892Z,4.72
2022-11-29T09:06:41.002Z,3.78
2022-11-29T09:09:10.020Z,5.20
2022-11-29T09:11:38.792Z,5.20
2022-11-29T09:14:12.390Z,3.63
2022-11-29T09:16:41.137Z,4.40
2022-11-29T09:19:09.890Z,4.40
2022-11-29T09:21:38.534Z,3.78
2022-11-29T09:24:08.322Z,4.43
2022-11-29T09:26:38.241Z,5.85
2022-11-29T09:29:09.958Z,4.80
2022-11-29T09:31:39.288Z,4.38
2022-11-29T09:34:08.009Z,5.50
2022-11-29T09:36:36.581Z,4.80
2022-11-29T09:39:05.247Z,5.97
2022-11-29T09:42:15.547Z,4.20
2022-11-29T09:44:57.467Z,4.85
2022-11-29T09:47:43.320Z,6.05
2022-11-29T09:50:24.719Z,4.70
2022-11-29T09:52:58.742Z,5.35
2022-11-29T09:55:47.869Z,4.20
2022-11-29T09:58:22.630Z,5.22
2022-11-29T10:00:56.575Z,4.88
2022-11-29T10:03:30.023Z,4.70
2022-11-29T10:06:03.279Z,5.80
2022-11-29T10:08:37.750Z,4.47
2022-11-29T10:11:20.628Z,4.88
2022-11-29T10:13:53.507Z,6.18
2022-11-29T10:16:29.982Z,5.78
2022-11-29T10:19:06.225Z,5.53
2022-11-29T10:21:38.604Z,5.65
2022-11-29T10:24:14.958Z,5.07
2022-11-29T10:26:44.208Z,5.60
2022-11-29T10:29:15.589Z,4.50
2022-11-29T10:31:49.691Z,5.57
2022-11-29T10:34:21.138Z,5.80
2022-11-29T10:36:51.921Z,5.25
2022-11-29T10:39:25.479Z,4.95
2022-11-29T10:41:58.579Z,5.90
2022-11-29T10:44:28.227Z,4.45
2022-11-29T10:46:59.691Z,5.30
2022-11-29T10:49:31.539Z,4.55
2022-11-29T10:52:00.106Z,5.75
2022-11-29T10:54:38.469Z,4.75
2022-11-29T10:57:15.652Z,4.95
2022-11-29T11:00:01.047Z,5.20
2022-11-29T11:02:31.998Z,8.23
2022-11-29T11:05:01.106Z,4.82
2022-11-29T11:07:33.563Z,5.18
2022-11-29T11:10:02.931Z,5.40
2022-11-29T11:12:33.592Z,5.45
2022-11-29T11:15:28.870Z,5.90
2022-11-29T11:18:01.041Z,4.45
2022-11-29T11:20:31.872Z,5.30
2022-11-29T11:23:03.716Z,6.35
2022-11-29T11:25:35.469Z,4.82
2022-11-29T11:28:21.446Z,4.53
2022-11-29T11:30:55.915Z,5.22
2022-11-29T11:33:28.581Z,5.35
2022-11-29T11:36:06.459Z,5.55
2022-11-29T11:38:35.959Z,4.22
2022-11-29T11:41:08.953Z,4.47
2022-11-29T11:43:37.806Z,3.83
2022-11-29T11:46:08.304Z,4.45
2022-11-29T11:48:42.568Z,4.57
2022-11-29T11:51:23.587Z,4.65
2022-11-29T11:53:56.510Z,4.75
2022-11-29T11:56:27.959Z,4.15
2022-11-29T11:58:59.358Z,4.60
2022-11-29T12:01:31.999Z,5.88
2022-11-29T12:04:07.492Z,4.85
2022-11-29T12:06:52.628Z,4.57
2022-11-29T12:09:37.523Z,5.07
2022-11-29T12:12:15.259Z,4.82
2022-11-29T12:14:55.212Z,3.95
2022-11-29T12:17:31.529Z,4.32
2022-11-29T12:20:11.880Z,4.32
2022-11-29T12:22:48.310Z,4.63
2022-11-29T12:25:22.886Z,4.75
2022-11-29T12:27:52.193Z,3.97
2022-11-29T12:30:21.321Z,4.68
2022-11-29T12:33:07.932Z,3.75
2022-11-29T12:36:00.350Z,3.92
2022-11-29T12:38:54.133Z,3.78
2022-11-29T12:41:33.813Z,2.97
2022-11-29T12:44:14.053Z,4.50
2022-11-29T12:47:02.096Z,4.95
2022-11-29T12:49:48.593Z,5.40
2022-11-29T12:52:27.168Z,14.57
2022-11-29T12:55:05.130Z,16.50
2022-11-29T12:57:41.191Z,11.77
2022-11-29T13:00:14.432Z,13.77
2022-11-29T13:02:54.394Z,6.32
2022-11-29T13:05:38.773Z,5.75
2022-11-29T13:08:23.987Z,4.40
2022-11-29T13:11:07.762Z,4.55
2022-11-29T13:13:41.000Z,4.78
2022-11-29T13:16:30.667Z,4.65
2022-11-29T13:19:03.861Z,4.97
2022-11-29T13:21:38.562Z,4.72
2022-11-29T13:24:13.786Z,4.28
2022-11-29T13:26:43.372Z,5.32
2022-11-29T13:29:17.223Z,5.78
2022-11-29T13:31:47.177Z,5.40
2022-11-29T13:34:21.166Z,4.95
2022-11-29T13:37:00.871Z,4.97
2022-11-29T13:39:43.148Z,5.38
2022-11-29T13:42:18.274Z,4.72
2022-11-29T13:44:54.597Z,4.57
2022-11-29T13:47:23.769Z,4.65
2022-11-29T13:50:02.514Z,4.55
2022-11-29T13:52:42.046Z,5.10
2022-11-29T13:55:31.579Z,4.53
2022-11-29T13:58:22.520Z,5.25
2022-11-29T14:00:53.212Z,6.05
2022-11-29T14:03:30.453Z,5.07
2022-11-29T14:06:11.912Z,6.28
2022-11-29T14:09:17.303Z,4.82
2022-11-29T14:11:46.307Z,6.53
2022-11-29T14:14:24.469Z,6.03
2022-11-29T14:16:56.987Z,5.82
2022-11-29T14:19:33.120Z,5.80
2022-11-29T14:22:30.507Z,6.97
2022-11-29T14:25:49.150Z,7.13
2022-11-29T14:28:30.357Z,6.25
2022-11-29T14:31:01.877Z,5.45
2022-11-29T14:33:57.868Z,5.40
2022-11-29T14:36:48.567Z,4.50
2022-11-29T14:39:29.309Z,4.95
2022-11-29T14:42:14.794Z,4.10
2022-11-29T14:44:51.410Z,4.07
2022-11-29T14:47:37.128Z,4.45
2022-11-29T14:50:09.993Z,5.13
2022-11-29T14:52:41.052Z,6.10
2022-11-29T14:55:32.085Z,5.88
2022-11-29T14:58:21.015Z,4.78
2022-11-29T15:01:10.891Z,4.25
2022-11-29T15:03:50.314Z,4.07
2022-11-29T15:06:27.513Z,4.07
2022-11-29T15:09:04.161Z,4.43
2022-11-29T15:11:50.986Z,4.22
2022-11-29T15:14:32.528Z,3.92
2022-11-29T15:17:17.311Z,4.07
2022-11-29T15:20:19.089Z,4.68
2022-11-29T15:22:52.588Z,5.10
2022-11-29T15:25:23.326Z,3.67
2022-11-29T15:27:53.829Z,4.95
2022-11-29T15:30:29.961Z,4.22
2022-11-29T15:33:01.949Z,4.10
2022-11-29T15:35:31.131Z,3.95
2022-11-29T15:38:01.712Z,7.45
2022-11-29T15:40:35.788Z,4.88
2022-11-29T15:43:17.049Z,3.67
2022-11-29T15:48:22.219Z,5.28
2022-11-29T15:50:56.101Z,5.30
2022-11-29T15:53:28.888Z,4.93
2022-11-29T15:55:59.827Z,5.85
2022-11-29T15:58:32.551Z,4.22
2022-11-29T16:01:06.392Z,4.82
2022-11-29T16:03:39.647Z,4.25
2022-11-29T16:06:22.392Z,4.93
2022-11-29T16:08:53.550Z,4.53
2022-11-29T16:11:30.211Z,4.53
2022-11-29T16:14:04.889Z,5.53
2022-11-29T16:16:35.782Z,4.88
2022-11-29T16:19:22.849Z,5.00
2022-11-29T16:22:02.592Z,5.43
2022-11-29T16:24:35.147Z,4.70
2022-11-29T16:27:04.430Z,4.90
2022-11-29T16:29:37.459Z,5.68
2022-11-29T16:32:26.006Z,5.40
2022-11-29T16:34:56.911Z,6.20
2022-11-29T16:37:26.789Z,4.85
2022-11-29T16:40:00.897Z,5.57
2022-11-29T16:42:31.433Z,5.53
2022-11-29T16:45:25.550Z,5.55
2022-11-29T16:47:58.945Z,6.68
2022-11-29T16:50:30.566Z,5.75
2022-11-29T16:53:42.574Z,4.97
2022-11-29T16:56:13.853Z,6.40
2022-11-29T17:01:33.992Z,5.60
2022-11-29T17:04:02.572Z,6.22
2022-11-29T17:06:34.032Z,5.97
2022-11-29T17:09:02.834Z,6.53
2022-11-29T17:11:31.401Z,7.22
2022-11-29T17:14:00.104Z,5.45
2022-11-29T17:16:28.804Z,5.72
2022-11-29T17:18:57.360Z,6.80
2022-11-29T17:21:28.071Z,5.05
2022-11-29T17:23:58.034Z,6.07
2022-11-29T17:26:26.557Z,7.18
2022-11-29T17:28:55.095Z,7.13
2022-11-29T17:31:25.619Z,7.00
2022-11-29T17:33:54.412Z,7.30
2022-11-29T17:36:23.272Z,6.78
2022-11-29T17:38:52.071Z,5.93
2022-11-29T17:41:24.388Z,7.88
2022-11-29T17:43:53.895Z,5.75
2022-11-29T17:46:24.641Z,6.30
2022-11-29T17:48:53.991Z,5.38
2022-11-29T17:54:13.541Z,7.15
2022-11-29T17:56:43.614Z,6.10
2022-11-29T17:59:12.321Z,6.85
2022-11-29T18:01:41.109Z,5.65
2022-11-29T18:04:09.905Z,5.97
2022-11-29T18:06:40.414Z,5.43
2022-11-29T18:09:11.403Z,6.55
2022-11-29T18:11:48.708Z,6.68
2022-11-29T18:14:20.467Z,6.07
2022-11-29T18:16:49.122Z,5.82
2022-11-29T18:19:20.096Z,5.53
2022-11-29T18:21:49.164Z,5.57
2022-11-29T18:24:17.867Z,7.15
2022-11-29T18:26:48.177Z,5.10
2022-11-29T18:29:16.914Z,7.97
2022-11-29T18:31:47.063Z,6.38
2022-11-29T18:34:16.827Z,6.68
2022-11-29T18:36:47.100Z,6.18
2022-11-29T18:39:17.297Z,6.95
2022-11-29T18:41:48.936Z,6.15
2022-11-29T18:44:21.841Z,6.25
2022-11-29T18:46:50.730Z,6.63
2022-11-29T18:49:19.951Z,7.82
2022-11-29T18:51:49.817Z,7.40
2022-11-29T18:54:22.766Z,7.07
2022-11-29T18:56:53.091Z,7.63
2022-11-29T18:59:23.744Z,6.60
2022-11-29T19:01:52.282Z,7.00
2022-11-29T19:04:22.186Z,7.35
2022-11-29T19:06:51.145Z,7.07
2022-11-29T19:09:22.251Z,7.47
2022-11-29T19:14:22.586Z,6.47
2022-11-29T19:16:51.827Z,6.80
2022-11-29T19:19:20.790Z,7.07
2022-11-29T19:21:49.644Z,7.82
2022-11-29T19:24:19.824Z,8.43
2022-11-29T19:26:50.289Z,7.65
2022-11-29T19:29:20.545Z,9.68
2022-11-29T19:31:50.583Z,7.70
2022-11-29T19:34:19.286Z,6.90
2022-11-29T19:36:47.867Z,7.78
2022-11-29T19:39:18.264Z,7.47
2022-11-29T19:41:48.469Z,9.82
2022-11-29T19:44:26.538Z,9.80
2022-11-29T19:46:57.917Z,9.13
2022-11-29T19:49:26.495Z,7.40
2022-11-29T19:51:55.051Z,7.25
2022-11-29T19:54:23.825Z,8.65
2022-11-29T19:56:52.425Z,9.95
2022-11-29T19:59:22.434Z,7.93
2022-11-29T20:04:20.865Z,10.65
2022-11-29T20:06:51.566Z,7.93
2022-11-29T20:09:20.227Z,7.20
2022-11-29T20:11:48.660Z,8.40
2022-11-29T20:14:17.165Z,8.05
2022-11-29T20:16:47.109Z,7.47
2022-11-29T20:19:18.007Z,8.82
2022-11-29T20:21:48.951Z,7.65
2022-11-29T20:24:19.678Z,7.57
2022-11-29T20:26:49.235Z,8.70
2022-11-29T20:29:19.487Z,7.95
2022-11-29T20:31:50.987Z,8.00
2022-11-29T20:34:20.875Z,9.65
2022-11-29T20:37:11.859Z,9.10
2022-11-29T20:39:47.133Z,9.07
2022-11-29T20:42:37.725Z,8.32
2022-11-29T20:45:08.806Z,7.97
2022-11-29T20:50:19.427Z,8.32
2022-11-29T20:53:00.781Z,8.32
2022-11-29T20:55:29.465Z,11.60
2022-11-29T20:57:57.968Z,8.80
2022-11-29T21:00:26.659Z,10.38
2022-11-29T21:02:56.789Z,8.63
2022-11-29T21:05:25.390Z,10.60
2022-11-29T21:07:53.952Z,9.00
2022-11-29T21:10:22.780Z,8.20
2022-11-29T21:12:51.831Z,9.88
2022-11-29T21:15:21.297Z,8.75
2022-11-29T21:17:50.456Z,8.40
2022-11-29T21:20:24.259Z,8.20
2022-11-29T21:22:59.864Z,9.30
2022-11-29T21:25:39.097Z,11.32
2022-11-29T21:28:12.172Z,11.05
2022-11-29T21:30:41.421Z,12.05
2022-11-29T21:33:11.454Z,10.23
2022-11-29T21:35:42.255Z,10.05
2022-11-29T21:38:16.253Z,7.80
2022-11-29T21:40:45.090Z,7.28
2022-11-29T21:43:13.632Z,10.15
2022-11-29T21:45:42.227Z,9.40
2022-11-29T21:48:31.052Z,8.75
2022-11-29T21:51:01.174Z,9.00
2022-11-29T21:53:29.782Z,9.63
2022-11-29T21:55:58.937Z,9.00
2022-11-29T21:58:27.871Z,8.70
2022-11-29T22:00:56.365Z,10.77
2022-11-29T22:03:25.120Z,9.68
2022-11-29T22:05:53.591Z,9.45
2022-11-29T22:08:23.573Z,9.68
2022-11-29T22:11:01.768Z,11.00
2022-11-29T22:13:30.454Z,9.93
2022-11-29T22:16:07.115Z,9.27
2022-11-29T22:18:36.465Z,8.98
2022-11-29T22:21:06.880Z,9.07
2022-11-29T22:23:36.972Z,8.77
2022-11-29T22:26:07.145Z,10.27
2022-11-29T22:28:36.657Z,8.13
2022-11-29T22:31:07.959Z,8.55
2022-11-29T22:33:37.205Z,7.50
2022-11-29T22:36:06.591Z,9.40
2022-11-29T22:38:37.350Z,9.35
2022-11-29T22:41:07.838Z,9.07
2022-11-29T22:43:37.248Z,9.88
2022-11-29T22:46:07.588Z,9.30
2022-11-29T22:48:38.914Z,8.85
2022-11-29T22:51:09.692Z,10.82
2022-11-29T22:53:41.549Z,8.35
2022-11-29T22:56:12.919Z,9.50
2022-11-29T22:58:41.534Z,9.82
2022-11-29T23:01:14.251Z,9.87
2022-11-29T23:03:46.055Z,7.72
2022-11-29T23:06:16.719Z,8.93
2022-11-29T23:08:48.659Z,11.93
2022-11-29T23:11:19.032Z,10.57
2022-11-29T23:13:48.002Z,8.63
2022-11-29T23:16:19.215Z,9.45
2022-11-29T23:18:48.710Z,8.88
2022-11-29T23:21:19.016Z,9.05
2022-11-29T23:23:55.790Z,8.95
2022-11-29T23:26:27.644Z,9.40
2022-11-29T23:28:56.796Z,8.88
2022-11-29T23:31:25.711Z,10.30
2022-11-29T23:33:54.546Z,9.63
2022-11-29T23:36:23.298Z,10.63
2022-11-29T23:38:53.355Z,9.38
2022-11-29T23:41:22.330Z,11.97
2022-11-29T23:43:51.005Z,10.95
2022-11-29T23:46:21.102Z,8.60
2022-11-29T23:48:49.896Z,10.43
2022-11-29T23:51:18.921Z,11.43
2022-11-29T23:53:48.153Z,9.73
2022-11-29T23:56:19.101Z,9.90
2022-11-29T23:58:47.901Z,7.80
